createdAt,value
2023-12-28T00:04:09.951Z,7.00
2023-12-28T00:10:03.769Z,7.10
2023-12-28T00:15:57.166Z,7.20
2023-12-28T00:21:51.798Z,7.30
2023-12-28T00:27:47.024Z,7.60
2023-12-28T00:33:40.256Z,7.70
2023-12-28T00:39:35.959Z,7.80
2023-12-28T00:45:29.390Z,7.80
2023-12-28T00:51:23.142Z,7.80
2023-12-28T00:57:17.972Z,7.70
2023-12-28T01:03:11.210Z,7.60
2023-12-28T01:09:04.485Z,7.60
2023-12-28T01:14:59.261Z,7.50
2023-12-28T01:20:52.587Z,7.60
2023-12-28T01:26:45.687Z,7.60
2023-12-28T01:32:40.120Z,7.60
2023-12-28T01:38:33.190Z,7.60
2023-12-28T01:44:26.537Z,7.60
2023-12-28T01:50:22.354Z,7.50
2023-12-28T01:56:15.938Z,7.60
2023-12-28T02:02:09.327Z,7.60
2023-12-28T02:08:04.882Z,7.70
2023-12-28T02:13:58.253Z,7.80
2023-12-28T02:19:53.844Z,7.80
2023-12-28T02:25:48.654Z,7.80
2023-12-28T02:31:49.133Z,8.00
2023-12-28T02:37:42.745Z,8.10
2023-12-28T02:43:37.723Z,8.20
2023-12-28T02:49:31.045Z,8.10
2023-12-28T02:55:24.520Z,8.20
2023-12-28T03:01:19.851Z,8.10
2023-12-28T03:07:13.249Z,8.20
2023-12-28T03:13:07.125Z,8.20
2023-12-28T03:19:01.946Z,8.20
2023-12-28T03:24:55.469Z,8.20
2023-12-28T03:30:48.829Z,8.10
2023-12-28T03:36:43.650Z,8.20
2023-12-28T03:42:36.712Z,8.20
2023-12-28T03:48:30.190Z,8.20
2023-12-28T03:54:25.129Z,8.20
2023-12-28T04:00:18.956Z,8.20
2023-12-28T04:06:12.467Z,8.10
2023-12-28T04:12:07.997Z,8.10
2023-12-28T04:18:01.585Z,8.10
2023-12-28T04:23:55.408Z,8.10
2023-12-28T04:29:50.317Z,8.00
2023-12-28T04:35:48.276Z,8.00
2023-12-28T04:50:30.254Z,7.90
2023-12-28T04:56:24.379Z,7.90
2023-12-28T05:02:17.676Z,7.90
2023-12-28T05:08:12.130Z,8.00
2023-12-28T05:14:05.342Z,8.00
2023-12-28T05:19:58.411Z,7.90
2023-12-28T05:25:53.399Z,8.00
2023-12-28T05:31:47.120Z,8.00
2023-12-28T05:37:40.769Z,8.10
2023-12-28T05:43:35.219Z,8.00
2023-12-28T05:49:29.897Z,8.10
2023-12-28T05:55:23.761Z,8.10
2023-12-28T06:01:18.856Z,8.10
2023-12-28T06:07:12.246Z,8.30
2023-12-28T06:13:05.968Z,8.40
2023-12-28T06:19:00.725Z,8.20
2023-12-28T06:24:54.738Z,8.30
2023-12-28T06:30:48.447Z,8.40
2023-12-28T06:36:44.390Z,8.40
2023-12-28T06:42:37.813Z,8.60
2023-12-28T06:48:31.119Z,8.60
2023-12-28T06:54:25.641Z,8.80
2023-12-28T07:00:20.250Z,8.80
2023-12-28T07:06:13.343Z,8.90
2023-12-28T07:12:08.829Z,9.00
2023-12-28T07:18:02.870Z,9.00
2023-12-28T07:23:56.625Z,9.10
2023-12-28T07:29:51.587Z,9.00
2023-12-28T07:35:45.236Z,9.30
2023-12-28T07:48:55.142Z,9.10
2023-12-28T07:54:48.677Z,9.50
2023-12-28T08:00:41.850Z,9.40
2023-12-28T08:06:36.591Z,9.40
2023-12-28T08:12:30.121Z,9.40
2023-12-28T08:18:23.641Z,9.40
2023-12-28T08:24:18.698Z,9.40
2023-12-28T08:30:12.473Z,9.40
2023-12-28T08:36:06.580Z,9.50
2023-12-28T08:42:02.769Z,9.60
2023-12-28T08:47:56.733Z,9.60
2023-12-28T08:53:50.591Z,9.70
2023-12-28T08:59:45.768Z,9.80
2023-12-28T09:05:39.488Z,9.90
2023-12-28T09:11:32.845Z,9.90
2023-12-28T09:17:27.592Z,10.10
2023-12-28T09:23:21.402Z,10.10
2023-12-28T09:29:14.970Z,10.00
2023-12-28T09:35:10.682Z,10.20
2023-12-28T09:41:13.602Z,10.30
2023-12-28T09:47:08.063Z,10.30
2023-12-28T09:53:02.852Z,10.50
2023-12-28T09:58:58.860Z,10.50
2023-12-28T10:04:52.401Z,10.50
2023-12-28T10:10:52.631Z,10.60
2023-12-28T10:16:46.087Z,10.60
2023-12-28T10:22:40.110Z,10.60
2023-12-28T10:28:38.707Z,10.60
2023-12-28T10:34:32.655Z,10.60
2023-12-28T10:40:28.214Z,10.50
2023-12-28T10:46:29.344Z,10.60
2023-12-28T10:52:28.853Z,10.70
2023-12-28T10:58:31.014Z,10.60
2023-12-28T11:04:33.982Z,10.70
2023-12-28T11:10:27.748Z,10.60
2023-12-28T11:16:22.703Z,10.70
2023-12-28T11:22:18.138Z,10.90
2023-12-28T11:28:12.928Z,10.90
2023-12-28T11:34:11.516Z,10.80
2023-12-28T11:40:21.023Z,10.80
2023-12-28T11:46:15.928Z,10.80
2023-12-28T11:52:10.781Z,10.80
2023-12-28T11:58:05.855Z,10.80
2023-12-28T12:03:59.264Z,10.80
2023-12-28T12:09:57.981Z,10.80
2023-12-28T12:15:57.991Z,10.80
2023-12-28T12:21:52.349Z,10.90
2023-12-28T12:27:46.106Z,10.90
2023-12-28T12:33:42.687Z,11.00
2023-12-28T12:39:37.716Z,11.00
2023-12-28T12:45:31.518Z,11.00
2023-12-28T12:51:27.008Z,10.90
2023-12-28T12:57:20.694Z,11.10
2023-12-28T13:03:13.969Z,11.10
2023-12-28T13:09:09.402Z,11.10
2023-12-28T13:15:02.981Z,11.00
2023-12-28T13:20:56.728Z,11.00
2023-12-28T13:26:51.628Z,10.90
2023-12-28T13:32:44.803Z,11.00
2023-12-28T13:38:38.503Z,10.90
2023-12-28T13:44:32.931Z,10.90
2023-12-28T13:50:26.612Z,10.90
2023-12-28T13:56:19.711Z,10.90
2023-12-28T14:02:14.202Z,10.80
2023-12-28T14:08:07.780Z,10.70
2023-12-28T14:14:00.852Z,10.70
2023-12-28T14:19:55.913Z,10.70
2023-12-28T14:25:54.859Z,10.70
2023-12-28T14:31:49.065Z,10.70
2023-12-28T14:37:43.828Z,10.60
2023-12-28T14:43:36.884Z,10.70
2023-12-28T14:49:30.644Z,10.70
2023-12-28T14:55:26.324Z,10.70
2023-12-28T15:01:21.906Z,10.70
2023-12-28T15:07:15.643Z,10.60
2023-12-28T15:13:11.754Z,10.60
2023-12-28T15:19:06.004Z,10.70
2023-12-28T15:25:00.390Z,10.60
2023-12-28T15:30:54.981Z,10.70
2023-12-28T15:36:48.694Z,10.60
2023-12-28T15:42:42.392Z,10.60
2023-12-28T15:48:40.237Z,10.60
2023-12-28T15:54:34.673Z,10.60
2023-12-28T16:00:28.409Z,10.60
2023-12-28T16:06:23.217Z,10.60
2023-12-28T16:12:19.281Z,10.60
2023-12-28T16:18:13.761Z,10.60
2023-12-28T16:24:09.554Z,10.60
2023-12-28T16:30:03.291Z,10.60
2023-12-28T16:35:57.748Z,10.50
2023-12-28T16:41:52.233Z,10.50
2023-12-28T16:47:45.817Z,10.50
2023-12-28T16:53:39.347Z,10.50
2023-12-28T16:59:34.240Z,10.50
2023-12-28T17:05:28.549Z,10.50
2023-12-28T17:11:22.663Z,10.50
2023-12-28T17:17:17.934Z,10.50
2023-12-28T17:23:16.857Z,10.50
2023-12-28T17:29:11.472Z,10.50
2023-12-28T17:35:08.323Z,10.40
2023-12-28T17:41:02.610Z,10.40
2023-12-28T17:46:59.705Z,10.40
2023-12-28T17:52:55.684Z,10.30
2023-12-28T17:58:49.204Z,10.30
2023-12-28T18:04:42.882Z,10.30
2023-12-28T18:10:37.486Z,10.30
2023-12-28T18:16:31.021Z,10.30
2023-12-28T18:22:24.682Z,10.40
2023-12-28T18:28:19.724Z,10.40
2023-12-28T18:34:13.088Z,10.40
2023-12-28T18:40:07.631Z,10.50
2023-12-28T18:46:02.691Z,10.50
2023-12-28T18:51:56.255Z,10.50
2023-12-28T18:57:51.941Z,10.50
2023-12-28T19:03:48.448Z,10.50
2023-12-28T19:09:42.370Z,10.50
2023-12-28T19:15:35.528Z,10.40
2023-12-28T19:21:30.454Z,10.40
2023-12-28T19:27:24.071Z,10.40
2023-12-28T19:33:17.224Z,10.40
2023-12-28T19:39:12.170Z,10.40
2023-12-28T19:45:06.591Z,10.40
2023-12-28T19:50:59.794Z,10.40
2023-12-28T19:56:54.688Z,10.40
2023-12-28T20:02:48.381Z,10.40
2023-12-28T20:08:42.041Z,10.40
2023-12-28T20:14:36.643Z,10.40
2023-12-28T20:20:30.457Z,10.40
2023-12-28T20:26:24.352Z,10.40
2023-12-28T20:32:19.270Z,10.50
2023-12-28T20:38:12.811Z,10.50
2023-12-28T20:44:06.006Z,10.50
2023-12-28T20:50:01.716Z,10.50
2023-12-28T20:55:55.512Z,10.50
2023-12-28T21:07:35.478Z,10.50
2023-12-28T21:13:34.178Z,10.50
2023-12-28T21:19:27.965Z,10.60
2023-12-28T21:25:23.302Z,10.50
2023-12-28T21:31:17.001Z,10.60
2023-12-28T21:37:10.639Z,10.50
2023-12-28T21:43:05.756Z,10.50
2023-12-28T21:48:59.658Z,10.60
2023-12-28T21:54:53.267Z,10.50
2023-12-28T22:00:48.381Z,10.60
2023-12-28T22:06:43.653Z,10.50
2023-12-28T22:12:37.253Z,10.60
2023-12-28T22:18:32.312Z,10.60
2023-12-28T22:24:25.888Z,10.50
2023-12-28T22:30:19.375Z,10.50
2023-12-28T22:36:14.285Z,10.50
2023-12-28T22:42:07.743Z,10.60
2023-12-28T22:48:01.666Z,10.60
2023-12-28T22:53:56.582Z,10.60
2023-12-28T22:59:50.032Z,10.60
2023-12-28T23:05:43.442Z,10.60
2023-12-28T23:11:39.981Z,10.60
2023-12-28T23:17:33.426Z,10.60
2023-12-28T23:23:27.064Z,10.50
2023-12-28T23:29:21.433Z,10.60
2023-12-28T23:35:14.640Z,10.50
2023-12-28T23:41:08.209Z,10.60
2023-12-28T23:47:03.019Z,10.50
2023-12-28T23:52:56.686Z,10.50
2023-12-28T23:58:50.367Z,10.50
